createdAt,value
2022-08-14T00:00:11.051Z,7.70
2022-08-14T00:02:44.303Z,8.13
2022-08-14T00:05:18.946Z,9.95
2022-08-14T00:07:51.019Z,9.20
2022-08-14T00:10:52.148Z,9.02
2022-08-14T00:13:13.774Z,9.38
2022-08-14T00:15:48.402Z,8.85
2022-08-14T00:18:30.393Z,10.27
2022-08-14T00:21:11.622Z,11.40
2022-08-14T00:23:43.228Z,10.32
2022-08-14T00:26:21.671Z,11.00
2022-08-14T00:28:53.331Z,9.82
2022-08-14T00:31:34.693Z,9.27
2022-08-14T00:34:36.576Z,10.10
2022-08-14T00:37:01.874Z,8.63
2022-08-14T00:39:33.372Z,9.95
2022-08-14T00:42:02.667Z,9.43
2022-08-14T00:44:33.370Z,9.60
2022-08-14T00:47:03.666Z,8.90
2022-08-14T00:49:38.323Z,9.85
2022-08-14T00:52:18.007Z,10.05
2022-08-14T00:54:57.869Z,10.77
2022-08-14T00:57:32.075Z,10.85
2022-08-14T01:00:03.168Z,10.75
2022-08-14T01:02:32.465Z,9.90
2022-08-14T01:05:02.867Z,11.02
2022-08-14T01:07:38.655Z,10.35
2022-08-14T01:10:18.920Z,10.38
2022-08-14T01:12:48.809Z,10.27
2022-08-14T01:15:31.636Z,9.57
2022-08-14T01:18:27.990Z,10.55
2022-08-14T01:21:11.847Z,10.23
2022-08-14T01:23:47.259Z,11.05
2022-08-14T01:26:23.516Z,9.90
2022-08-14T01:29:07.443Z,9.60
2022-08-14T01:31:50.383Z,10.23
2022-08-14T01:35:17.569Z,10.32
2022-08-14T01:37:12.714Z,10.73
2022-08-14T01:39:47.180Z,11.60
2022-08-14T01:42:31.425Z,11.43
2022-08-14T01:45:12.757Z,10.82
2022-08-14T01:47:47.184Z,10.88
2022-08-14T01:50:18.961Z,10.80
2022-08-14T01:52:58.613Z,10.50
2022-08-14T01:55:32.504Z,10.35
2022-08-14T01:58:19.526Z,10.43
2022-08-14T02:00:54.960Z,10.75
2022-08-14T02:03:30.967Z,10.98
2022-08-14T02:06:03.911Z,10.00
2022-08-14T02:08:52.798Z,10.60
2022-08-14T02:11:27.047Z,10.55
2022-08-14T02:14:07.158Z,10.38
2022-08-14T02:16:41.523Z,9.68
2022-08-14T02:19:15.013Z,9.57
2022-08-14T02:21:48.743Z,10.20
2022-08-14T02:24:38.834Z,10.52
2022-08-14T02:28:24.681Z,10.38
2022-08-14T02:30:02.827Z,9.85
2022-08-14T02:32:44.644Z,10.23
2022-08-14T02:35:17.997Z,10.32
2022-08-14T02:37:49.426Z,11.68
2022-08-14T02:40:20.318Z,10.98
2022-08-14T02:42:54.636Z,11.50
2022-08-14T02:45:38.849Z,11.57
2022-08-14T02:49:03.350Z,11.17
2022-08-14T02:51:08.942Z,12.40
2022-08-14T02:53:42.453Z,11.20
2022-08-14T02:56:30.097Z,11.88
2022-08-14T02:59:05.556Z,11.10
2022-08-14T03:01:43.876Z,11.10
2022-08-14T03:04:20.872Z,12.13
2022-08-14T03:06:58.043Z,11.70
2022-08-14T03:10:26.729Z,11.15
2022-08-14T03:12:32.389Z,12.60
2022-08-14T03:15:16.479Z,12.25
2022-08-14T03:17:57.062Z,12.73
2022-08-14T03:20:29.206Z,12.82
2022-08-14T03:23:03.177Z,12.65
2022-08-14T03:25:34.336Z,12.38
2022-08-14T03:28:14.354Z,11.20
2022-08-14T03:30:46.224Z,12.52
2022-08-14T03:33:15.367Z,11.80
2022-08-14T03:36:00.293Z,13.57
2022-08-14T03:39:14.959Z,12.32
2022-08-14T03:41:26.449Z,12.40
2022-08-14T03:44:01.530Z,12.52
2022-08-14T03:46:54.460Z,12.55
2022-08-14T03:49:29.666Z,12.38
2022-08-14T03:52:00.908Z,12.07
2022-08-14T03:54:35.826Z,12.98
2022-08-14T03:57:06.733Z,13.00
2022-08-14T03:59:36.796Z,12.45
2022-08-14T04:02:37.237Z,13.00
2022-08-14T04:04:57.336Z,12.88
2022-08-14T04:07:49.721Z,13.10
2022-08-14T04:13:03.449Z,13.85
2022-08-14T04:15:56.748Z,14.63
2022-08-14T04:18:24.248Z,15.20
2022-08-14T04:20:54.541Z,16.58
2022-08-14T04:23:29.946Z,17.40
2022-08-14T04:26:04.827Z,17.48
2022-08-14T04:29:08.054Z,17.02
2022-08-14T04:33:10.696Z,17.83
2022-08-14T04:34:24.234Z,17.77
2022-08-14T04:37:17.463Z,18.48
2022-08-14T04:40:09.155Z,15.57
2022-08-14T04:43:00.782Z,14.80
2022-08-14T04:45:40.994Z,15.07
2022-08-14T04:48:38.692Z,14.30
2022-08-14T04:51:10.696Z,13.68
2022-08-14T04:53:44.596Z,12.43
2022-08-14T04:56:30.832Z,13.48
2022-08-14T04:59:10.136Z,14.82
2022-08-14T05:01:48.874Z,16.45
2022-08-14T05:04:21.017Z,16.67
2022-08-14T05:06:55.153Z,17.35
2022-08-14T05:09:29.405Z,15.32
2022-08-14T05:13:11.148Z,16.20
2022-08-14T05:14:54.660Z,14.65
2022-08-14T05:17:28.854Z,14.63
2022-08-14T05:23:03.652Z,12.93
2022-08-14T05:25:34.389Z,12.48
2022-08-14T05:28:14.189Z,12.43
2022-08-14T05:30:46.846Z,12.20
2022-08-14T05:33:18.668Z,10.27
2022-08-14T05:35:51.042Z,11.45
2022-08-14T05:38:30.686Z,10.77
2022-08-14T05:41:02.345Z,11.32
2022-08-14T05:43:41.613Z,12.27
2022-08-14T05:46:15.414Z,11.50
2022-08-14T05:48:45.477Z,10.63
2022-08-14T05:51:14.896Z,11.80
2022-08-14T05:54:00.307Z,10.57
2022-08-14T05:56:37.116Z,10.20
2022-08-14T05:59:07.221Z,10.90
2022-08-14T06:01:36.777Z,10.18
2022-08-14T06:04:06.256Z,10.15
2022-08-14T06:06:38.376Z,10.27
2022-08-14T06:09:10.599Z,9.38
2022-08-14T06:11:39.863Z,9.27
2022-08-14T06:14:20.820Z,9.57
2022-08-14T06:16:53.049Z,9.30
2022-08-14T06:19:23.462Z,9.00
2022-08-14T06:21:59.006Z,8.68
2022-08-14T06:24:34.659Z,8.98
2022-08-14T06:27:09.975Z,9.30
2022-08-14T06:29:40.377Z,9.15
2022-08-14T06:32:38.726Z,8.63
2022-08-14T06:35:09.122Z,8.27
2022-08-14T06:37:45.205Z,8.18
2022-08-14T06:40:26.920Z,8.57
2022-08-14T06:43:00.366Z,8.77
2022-08-14T06:45:32.727Z,8.35
2022-08-14T06:48:06.327Z,8.00
2022-08-14T06:50:42.200Z,7.85
2022-08-14T06:53:16.585Z,8.07
2022-08-14T06:55:53.228Z,7.22
2022-08-14T06:58:30.952Z,7.45
2022-08-14T07:01:27.116Z,7.75
2022-08-14T07:04:23.169Z,7.60
2022-08-14T07:06:58.495Z,7.22
2022-08-14T07:09:40.496Z,6.97
2022-08-14T07:12:34.757Z,7.93
2022-08-14T07:15:05.905Z,7.15
2022-08-14T07:17:36.316Z,6.97
2022-08-14T07:20:07.616Z,7.05
2022-08-14T07:22:55.863Z,6.60
2022-08-14T07:25:32.564Z,6.35
2022-08-14T07:28:12.866Z,6.22
2022-08-14T07:30:50.737Z,6.20
2022-08-14T07:33:29.300Z,7.53
2022-08-14T07:36:26.263Z,6.53
2022-08-14T07:38:53.095Z,7.15
2022-08-14T07:41:22.180Z,7.00
2022-08-14T07:43:55.807Z,7.20
2022-08-14T07:46:28.299Z,6.95
2022-08-14T07:48:58.993Z,8.02
2022-08-14T07:51:36.631Z,6.82
2022-08-14T07:54:11.103Z,6.80
2022-08-14T07:56:48.164Z,6.32
2022-08-14T07:59:41.490Z,6.90
2022-08-14T08:02:18.087Z,6.40
2022-08-14T08:04:54.026Z,7.18
2022-08-14T08:07:30.136Z,6.82
2022-08-14T08:10:31.183Z,6.63
2022-08-14T08:13:18.076Z,6.32
2022-08-14T08:15:56.601Z,6.45
2022-08-14T08:18:29.814Z,7.00
2022-08-14T08:21:00.696Z,6.85
2022-08-14T08:23:43.711Z,6.45
2022-08-14T08:26:20.775Z,7.00
2022-08-14T08:28:58.040Z,6.78
2022-08-14T08:31:33.142Z,6.13
2022-08-14T08:34:07.402Z,6.07
2022-08-14T08:36:46.488Z,6.07
2022-08-14T08:39:22.583Z,5.90
2022-08-14T08:41:53.609Z,5.85
2022-08-14T08:44:32.663Z,6.00
2022-08-14T08:47:06.771Z,6.07
2022-08-14T08:49:59.295Z,6.35
2022-08-14T08:52:31.158Z,6.10
2022-08-14T08:55:05.031Z,5.55
2022-08-14T08:57:37.607Z,5.82
2022-08-14T09:00:24.894Z,5.82
2022-08-14T09:03:03.221Z,6.13
2022-08-14T09:05:37.318Z,5.60
2022-08-14T09:08:30.892Z,6.22
2022-08-14T09:11:18.780Z,5.85
2022-08-14T09:13:53.247Z,6.00
2022-08-14T09:16:25.345Z,6.15
2022-08-14T09:18:57.507Z,6.30
2022-08-14T09:21:31.695Z,6.28
2022-08-14T09:24:30.248Z,5.80
2022-08-14T09:26:50.967Z,5.90
2022-08-14T09:29:23.520Z,6.13
2022-08-14T09:31:58.201Z,5.95
2022-08-14T09:34:59.272Z,6.05
2022-08-14T09:37:38.729Z,6.95
2022-08-14T09:40:22.284Z,6.35
2022-08-14T09:43:05.600Z,5.88
2022-08-14T09:45:53.298Z,6.10
2022-08-14T09:48:29.857Z,6.18
2022-08-14T09:54:18.578Z,5.82
2022-08-14T09:56:45.761Z,6.00
2022-08-14T09:59:22.272Z,6.13
2022-08-14T10:01:53.234Z,6.20
2022-08-14T10:04:36.544Z,6.03
2022-08-14T10:07:10.231Z,5.82
2022-08-14T10:09:59.898Z,6.20
2022-08-14T10:12:52.902Z,5.90
2022-08-14T10:15:29.777Z,5.70
2022-08-14T10:18:17.215Z,5.90
2022-08-14T10:20:57.549Z,5.53
2022-08-14T10:23:39.704Z,6.10
2022-08-14T10:26:11.975Z,5.72
2022-08-14T10:29:18.621Z,6.72
2022-08-14T10:31:45.876Z,6.18
2022-08-14T10:34:29.038Z,5.95
2022-08-14T10:37:14.265Z,5.97
2022-08-14T10:40:05.629Z,5.60
2022-08-14T10:42:43.592Z,5.90
2022-08-14T10:45:22.036Z,6.00
2022-08-14T10:48:07.847Z,5.75
2022-08-14T10:53:15.896Z,5.50
2022-08-14T10:55:48.251Z,5.70
2022-08-14T10:58:32.818Z,5.82
2022-08-14T11:01:05.589Z,6.15
2022-08-14T11:03:55.726Z,5.50
2022-08-14T11:06:27.251Z,5.78
2022-08-14T11:08:56.597Z,6.38
2022-08-14T11:11:28.563Z,5.32
2022-08-14T11:14:09.384Z,5.57
2022-08-14T11:16:40.583Z,5.80
2022-08-14T11:19:11.319Z,4.85
2022-08-14T11:21:45.799Z,5.50
2022-08-14T11:24:55.257Z,5.50
2022-08-14T11:27:11.366Z,5.18
2022-08-14T11:29:42.263Z,5.80
2022-08-14T11:32:12.103Z,5.30
2022-08-14T11:34:41.917Z,5.32
2022-08-14T11:37:21.535Z,4.68
2022-08-14T11:40:02.222Z,5.15
2022-08-14T11:42:58.445Z,5.43
2022-08-14T11:45:23.444Z,5.40
2022-08-14T11:48:12.584Z,4.80
2022-08-14T11:50:43.437Z,5.13
2022-08-14T11:53:22.147Z,5.10
2022-08-14T11:55:58.489Z,4.90
2022-08-14T11:58:31.224Z,4.50
2022-08-14T12:01:07.175Z,5.30
2022-08-14T12:03:52.295Z,4.63
2022-08-14T12:06:39.186Z,5.03
2022-08-14T12:09:13.921Z,4.57
2022-08-14T12:11:46.878Z,5.03
2022-08-14T12:14:30.440Z,5.30
2022-08-14T12:17:09.625Z,5.45
2022-08-14T12:19:51.449Z,5.35
2022-08-14T12:22:40.172Z,5.53
2022-08-14T12:25:15.432Z,5.45
2022-08-14T12:27:53.183Z,4.95
2022-08-14T12:30:42.571Z,5.30
2022-08-14T12:33:26.996Z,5.05
2022-08-14T12:36:04.520Z,5.20
2022-08-14T12:38:38.699Z,4.80
2022-08-14T12:41:16.423Z,5.10
2022-08-14T12:43:53.704Z,5.30
2022-08-14T12:46:29.247Z,5.10
2022-08-14T12:49:02.384Z,4.88
2022-08-14T12:51:32.572Z,4.88
2022-08-14T12:54:18.614Z,5.15
2022-08-14T12:57:07.948Z,5.03
2022-08-14T12:59:42.829Z,4.95
2022-08-14T13:02:25.256Z,4.50
2022-08-14T13:04:56.751Z,5.07
2022-08-14T13:07:32.006Z,5.03
2022-08-14T13:10:46.129Z,4.82
2022-08-14T13:13:15.469Z,4.60
2022-08-14T13:15:46.483Z,4.55
2022-08-14T13:18:18.083Z,4.75
2022-08-14T13:20:55.400Z,4.93
2022-08-14T13:23:31.604Z,5.07
2022-08-14T13:26:02.821Z,5.00
2022-08-14T13:28:41.269Z,4.63
2022-08-14T13:31:30.037Z,4.32
2022-08-14T13:34:04.511Z,4.93
2022-08-14T13:36:54.520Z,4.80
2022-08-14T13:39:26.347Z,4.50
2022-08-14T13:41:57.550Z,4.63
2022-08-14T13:44:28.800Z,4.53
2022-08-14T13:46:58.767Z,4.68
2022-08-14T13:49:29.378Z,4.43
2022-08-14T13:52:01.447Z,4.93
2022-08-14T13:54:32.878Z,4.85
2022-08-14T13:57:03.796Z,4.30
2022-08-14T13:59:38.653Z,4.60
2022-08-14T14:02:09.545Z,4.40
2022-08-14T14:04:46.401Z,4.13
2022-08-14T14:07:23.563Z,4.80
2022-08-14T14:09:56.664Z,4.63
2022-08-14T14:12:38.475Z,4.38
2022-08-14T14:15:13.826Z,4.35
2022-08-14T14:17:46.543Z,4.30
2022-08-14T14:20:35.949Z,4.60
2022-08-14T14:23:12.167Z,4.40
2022-08-14T14:25:51.225Z,4.07
2022-08-14T14:28:34.223Z,4.28
2022-08-14T14:31:05.846Z,4.25
2022-08-14T14:33:46.669Z,4.88
2022-08-14T14:36:25.381Z,4.60
2022-08-14T14:38:58.192Z,3.92
2022-08-14T14:41:38.076Z,4.35
2022-08-14T14:44:13.591Z,4.30
2022-08-14T14:46:51.155Z,4.20
2022-08-14T14:49:31.994Z,4.05
2022-08-14T14:52:27.353Z,4.10
2022-08-14T14:54:59.050Z,4.20
2022-08-14T14:57:35.540Z,4.20
2022-08-14T15:00:12.602Z,3.80
2022-08-14T15:02:47.306Z,4.07
2022-08-14T15:05:23.449Z,3.97
2022-08-14T15:07:59.044Z,4.05
2022-08-14T15:10:34.223Z,3.80
2022-08-14T15:13:07.250Z,3.75
2022-08-14T15:15:38.062Z,3.90
2022-08-14T15:18:36.389Z,4.40
2022-08-14T15:21:02.620Z,4.00
2022-08-14T15:23:43.719Z,4.80
2022-08-14T15:26:24.070Z,4.20
2022-08-14T15:29:05.717Z,4.38
2022-08-14T15:31:37.319Z,4.30
2022-08-14T15:34:44.795Z,4.38
2022-08-14T15:37:06.615Z,4.40
2022-08-14T15:39:44.381Z,4.25
2022-08-14T15:42:16.123Z,4.15
2022-08-14T15:44:58.047Z,4.43
2022-08-14T15:47:34.715Z,3.92
2022-08-14T15:50:09.641Z,4.38
2022-08-14T15:52:42.932Z,4.68
2022-08-14T15:55:16.394Z,3.95
2022-08-14T15:57:51.440Z,4.35
2022-08-14T16:00:51.981Z,4.60
2022-08-14T16:03:27.203Z,4.15
2022-08-14T16:06:10.633Z,4.30
2022-08-14T16:08:40.947Z,4.28
2022-08-14T16:11:13.208Z,4.38
2022-08-14T16:13:44.367Z,3.88
2022-08-14T16:16:47.378Z,4.88
2022-08-14T16:19:11.151Z,5.03
2022-08-14T16:22:02.255Z,5.22
2022-08-14T16:24:36.060Z,5.55
2022-08-14T16:27:39.022Z,5.90
2022-08-14T16:30:25.227Z,5.75
2022-08-14T16:35:55.906Z,5.85
2022-08-14T16:38:45.854Z,5.93
2022-08-14T16:40:24.515Z,5.37
2022-08-14T16:41:22.971Z,6.03
2022-08-14T16:44:01.349Z,6.30
2022-08-14T16:46:34.851Z,5.72
2022-08-14T16:49:07.166Z,5.75
2022-08-14T16:51:39.021Z,6.10
2022-08-14T16:54:34.381Z,5.70
2022-08-14T16:57:17.231Z,6.55
2022-08-14T16:59:52.204Z,6.20
2022-08-14T17:02:38.950Z,6.22
2022-08-14T17:05:24.819Z,6.22
2022-08-14T17:08:41.812Z,5.68
2022-08-14T17:11:10.522Z,6.32
2022-08-14T17:13:58.371Z,6.20
2022-08-14T17:16:38.176Z,6.00
2022-08-14T17:21:47.327Z,6.38
2022-08-14T17:24:57.979Z,6.28
2022-08-14T17:27:09.421Z,6.20
2022-08-14T17:32:56.629Z,5.95
2022-08-14T17:35:58.809Z,6.20
2022-08-14T17:38:38.383Z,6.10
2022-08-14T17:41:23.854Z,5.78
2022-08-14T17:44:10.807Z,6.15
2022-08-14T17:46:43.944Z,6.07
2022-08-14T17:49:18.361Z,6.43
2022-08-14T17:52:07.711Z,5.82
2022-08-14T17:54:52.911Z,5.78
2022-08-14T17:57:35.344Z,5.95
2022-08-14T18:00:14.777Z,6.80
2022-08-14T18:02:50.821Z,6.72
2022-08-14T18:06:06.937Z,6.65
2022-08-14T18:08:33.733Z,6.35
2022-08-14T18:11:03.499Z,6.78
2022-08-14T18:13:51.259Z,6.90
2022-08-14T18:16:22.968Z,7.00
2022-08-14T18:18:52.738Z,6.47
2022-08-14T18:21:41.442Z,6.95
2022-08-14T18:24:19.913Z,6.85
2022-08-14T18:27:08.663Z,7.57
2022-08-14T18:29:54.493Z,6.70
2022-08-14T18:32:47.427Z,7.13
2022-08-14T18:35:56.739Z,6.25
2022-08-14T18:38:55.124Z,7.22
2022-08-14T18:41:36.981Z,6.47
2022-08-14T18:44:10.131Z,6.85
2022-08-14T18:47:23.799Z,7.82
2022-08-14T18:50:27.734Z,9.60
2022-08-14T18:52:55.106Z,10.02
2022-08-14T18:55:54.072Z,8.55
2022-08-14T18:58:31.496Z,8.80
2022-08-14T19:01:06.066Z,8.18
2022-08-14T19:04:01.595Z,8.60
2022-08-14T19:06:56.581Z,7.45
2022-08-14T19:09:57.819Z,7.00
2022-08-14T19:13:05.445Z,7.50
2022-08-14T19:15:44.549Z,6.93
2022-08-14T19:18:38.360Z,6.90
2022-08-14T19:21:24.015Z,7.35
2022-08-14T19:24:29.613Z,7.50
2022-08-14T19:27:19.488Z,7.43
2022-08-14T19:30:24.446Z,7.78
2022-08-14T19:33:02.500Z,7.95
2022-08-14T19:35:56.032Z,7.75
2022-08-14T19:38:54.659Z,7.45
2022-08-14T19:41:30.671Z,7.70
2022-08-14T19:44:13.635Z,7.90
2022-08-14T19:47:01.041Z,7.75
2022-08-14T19:50:08.728Z,7.15
2022-08-14T19:52:26.858Z,7.63
2022-08-14T19:55:00.486Z,7.55
2022-08-14T19:57:31.960Z,7.35
2022-08-14T20:00:28.438Z,8.57
2022-08-14T20:03:11.389Z,7.47
2022-08-14T20:05:43.010Z,7.95
2022-08-14T20:11:07.164Z,8.27
2022-08-14T20:11:20.888Z,8.32
2022-08-14T20:14:01.735Z,7.82
2022-08-14T20:16:34.838Z,8.07
2022-08-14T20:19:23.233Z,7.95
2022-08-14T20:22:18.061Z,8.65
2022-08-14T20:24:47.313Z,8.55
2022-08-14T20:27:33.721Z,8.95
2022-08-14T20:30:37.614Z,8.75
2022-08-14T20:33:11.502Z,8.02
2022-08-14T20:35:49.219Z,8.02
2022-08-14T20:38:20.685Z,8.30
2022-08-14T20:41:06.659Z,8.07
2022-08-14T20:43:59.502Z,8.48
2022-08-14T20:46:38.675Z,8.68
2022-08-14T20:49:12.485Z,9.05
2022-08-14T20:51:54.776Z,8.68
2022-08-14T20:54:34.062Z,9.27
2022-08-14T20:57:12.053Z,9.40
2022-08-14T20:59:48.734Z,8.60
2022-08-14T21:02:46.610Z,8.75
2022-08-14T21:05:33.784Z,8.43
2022-08-14T21:08:09.588Z,8.57
2022-08-14T21:10:56.760Z,9.10
2022-08-14T21:14:20.530Z,8.75
2022-08-14T21:16:33.016Z,8.60
2022-08-14T21:19:05.668Z,9.30
2022-08-14T21:21:41.620Z,8.57
2022-08-14T21:24:38.378Z,9.13
2022-08-14T21:27:19.686Z,8.65
2022-08-14T21:29:54.275Z,8.47
2022-08-14T21:32:50.201Z,9.75
2022-08-14T21:35:22.805Z,8.95
2022-08-14T21:37:53.927Z,8.85
2022-08-14T21:40:41.849Z,9.10
2022-08-14T21:43:18.046Z,9.10
2022-08-14T21:45:51.652Z,9.80
2022-08-14T21:48:25.323Z,9.52
2022-08-14T21:51:53.808Z,10.02
2022-08-14T21:53:59.661Z,9.70
2022-08-14T21:56:38.703Z,9.00
2022-08-14T21:59:18.290Z,10.38
2022-08-14T22:02:01.003Z,9.90
2022-08-14T22:04:40.633Z,9.63
2022-08-14T22:07:17.327Z,9.52
2022-08-14T22:09:55.002Z,8.77
2022-08-14T22:12:57.608Z,8.98
2022-08-14T22:15:17.986Z,9.02
2022-08-14T22:17:54.171Z,9.85
2022-08-14T22:20:28.092Z,9.00
2022-08-14T22:23:06.053Z,9.43
2022-08-14T22:25:41.044Z,9.55
2022-08-14T22:28:17.700Z,9.85
2022-08-14T22:30:54.786Z,9.32
2022-08-14T22:33:31.066Z,9.27
2022-08-14T22:36:25.463Z,9.38
2022-08-14T22:38:56.761Z,9.23
2022-08-14T22:41:32.699Z,9.10
2022-08-14T22:44:10.858Z,9.98
2022-08-14T22:46:43.293Z,9.70
2022-08-14T22:49:16.336Z,10.45
2022-08-14T22:52:31.547Z,10.23
2022-08-14T22:54:58.871Z,9.10
2022-08-14T22:57:37.571Z,10.23
2022-08-14T23:00:16.546Z,9.73
2022-08-14T23:02:46.781Z,9.38
2022-08-14T23:05:16.582Z,9.90
2022-08-14T23:08:58.331Z,9.43
2022-08-14T23:10:56.740Z,10.05
2022-08-14T23:13:26.504Z,9.88
2022-08-14T23:16:00.296Z,10.30
2022-08-14T23:18:30.362Z,10.10
2022-08-14T23:20:59.626Z,10.95
2022-08-14T23:23:29.204Z,10.40
2022-08-14T23:26:49.848Z,11.43
2022-08-14T23:28:56.930Z,11.68
2022-08-14T23:31:35.599Z,11.35
2022-08-14T23:36:55.479Z,11.32
2022-08-14T23:39:31.093Z,11.65
2022-08-14T23:42:04.643Z,11.35
2022-08-14T23:44:37.074Z,11.63
2022-08-14T23:47:11.922Z,11.93
2022-08-14T23:50:00.719Z,11.70
2022-08-14T23:52:56.379Z,11.00
2022-08-14T23:55:30.259Z,12.13
2022-08-14T23:58:00.662Z,10.73
